sensor_id;sensor_type;location;lat;lon;timestamp;pressure;altitude;pressure_sealevel;temperature;humidity
35435;BME280;21556;55.782;37.528;2023-04-01T00:02:24;98317.38;;;4.53;100.00
35435;BME280;21556;55.782;37.528;2023-04-01T00:04:50;98323.31;;;4.44;100.00
35435;BME280;21556;55.782;37.528;2023-04-01T00:07:16;98320.19;;;3.76;100.00
35435;BME280;21556;55.782;37.528;2023-04-01T00:09:44;98316.91;;;4.28;100.00
35435;BME280;21556;55.782;37.528;2023-04-01T00:12:10;98317.03;;;4.33;100.00
35435;BME280;21556;55.782;37.528;2023-04-01T00:14:36;98321.63;;;4.48;100.00
35435;BME280;21556;55.782;37.528;2023-04-01T00:17:02;98321.03;;;4.63;100.00
35435;BME280;21556;55.782;37.528;2023-04-01T00:19:28;98316.91;;;4.75;100.00
35435;BME280;21556;55.782;37.528;2023-04-01T00:21:53;98308.34;;;4.79;100.00
35435;BME280;21556;55.782;37.528;2023-04-01T00:24:19;98313.94;;;4.52;100.00
35435;BME280;21556;55.782;37.528;2023-04-01T00:26:46;98306.81;;;4.42;100.00
35435;BME280;21556;55.782;37.528;2023-04-01T00:29:13;98315.13;;;4.24;100.00
35435;BME280;21556;55.782;37.528;2023-04-01T00:31:38;98316.91;;;4.28;100.00
35435;BME280;21556;55.782;37.528;2023-04-01T00:34:04;98310.91;;;4.29;100.00
35435;BME280;21556;55.782;37.528;2023-04-01T00:36:30;98314.53;;;4.39;100.00
35435;BME280;21556;55.782;37.528;2023-04-01T00:38:57;98304.84;;;4.29;100.00
35435;BME280;21556;55.782;37.528;2023-04-01T00:41:24;98298.31;;;4.51;100.00
35435;BME280;21556;55.782;37.528;2023-04-01T00:43:51;98302.81;;;4.59;100.00
35435;BME280;21556;55.782;37.528;2023-04-01T00:46:17;98304.13;;;4.36;100.00
35435;BME280;21556;55.782;37.528;2023-04-01T00:48:47;98297.41;;;4.49;100.00
35435;BME280;21556;55.782;37.528;2023-04-01T00:51:15;98299.00;;;4.42;100.00
35435;BME280;21556;55.782;37.528;2023-04-01T00:53:43;98302.72;;;4.09;100.00
35435;BME280;21556;55.782;37.528;2023-04-01T00:56:21;98298.59;;;4.66;100.00
35435;BME280;21556;55.782;37.528;2023-04-01T00:58:49;98302.53;;;4.44;100.00
35435;BME280;21556;55.782;37.528;2023-04-01T01:01:16;98298.44;;;4.12;100.00
35435;BME280;21556;55.782;37.528;2023-04-01T01:03:42;98296.56;;;4.50;100.00
35435;BME280;21556;55.782;37.528;2023-04-01T01:06:12;98297.47;;;4.53;100.00
35435;BME280;21556;55.782;37.528;2023-04-01T01:08:51;98295.72;;;4.51;100.00
35435;BME280;21556;55.782;37.528;2023-04-01T01:11:19;98295.81;;;4.55;100.00
35435;BME280;21556;55.782;37.528;2023-04-01T01:13:58;98297.81;;;4.72;100.00
35435;BME280;21556;55.782;37.528;2023-04-01T01:16:28;98305.34;;;4.56;100.00
35435;BME280;21556;55.782;37.528;2023-04-01T01:19:07;98299.28;;;4.56;100.00
35435;BME280;21556;55.782;37.528;2023-04-01T01:21:56;98311.00;;;4.34;100.00
35435;BME280;21556;55.782;37.528;2023-04-01T01:27:18;98309.50;;;4.03;100.00
35435;BME280;21556;55.782;37.528;2023-04-01T01:35:16;98308.47;;;4.39;100.00
35435;BME280;21556;55.782;37.528;2023-04-01T01:37:45;98306.53;;;4.28;100.00
35435;BME280;21556;55.782;37.528;2023-04-01T01:40:12;98307.13;;;4.14;100.00
35435;BME280;21556;55.782;37.528;2023-04-01T01:42:42;98303.47;;;4.49;100.00
35435;BME280;21556;55.782;37.528;2023-04-01T01:45:10;98301.06;;;4.60;100.00
35435;BME280;21556;55.782;37.528;2023-04-01T01:47:37;98308.38;;;4.32;100.00
35435;BME280;21556;55.782;37.528;2023-04-01T01:50:06;98309.47;;;4.45;100.00
35435;BME280;21556;55.782;37.528;2023-04-01T01:52:32;98307.66;;;4.41;100.00
35435;BME280;21556;55.782;37.528;2023-04-01T01:54:59;98311.50;;;4.15;100.00
35435;BME280;21556;55.782;37.528;2023-04-01T01:57:33;98304.84;;;4.29;100.00
35435;BME280;21556;55.782;37.528;2023-04-01T02:00:03;98307.31;;;4.23;100.00
35435;BME280;21556;55.782;37.528;2023-04-01T02:02:41;98313.22;;;4.16;100.00
35435;BME280;21556;55.782;37.528;2023-04-01T02:05:09;98305.22;;;4.03;100.00
35435;BME280;21556;55.782;37.528;2023-04-01T02:07:36;98300.91;;;4.05;100.00
35435;BME280;21556;55.782;37.528;2023-04-01T02:10:04;98307.81;;;4.05;100.00
35435;BME280;21556;55.782;37.528;2023-04-01T02:12:31;98314.97;;;4.17;100.00
35435;BME280;21556;55.782;37.528;2023-04-01T02:15:01;98317.56;;;4.17;100.00
35435;BME280;21556;55.782;37.528;2023-04-01T02:17:30;98314.91;;;4.14;100.00
35435;BME280;21556;55.782;37.528;2023-04-01T02:19:58;98316.75;;;4.18;100.00
35435;BME280;21556;55.782;37.528;2023-04-01T02:22:29;98319.34;;;4.19;100.00
35435;BME280;21556;55.782;37.528;2023-04-01T02:24:58;98317.41;;;4.09;100.00
35435;BME280;21556;55.782;37.528;2023-04-01T02:27:25;98320.94;;;4.11;100.00
35435;BME280;21556;55.782;37.528;2023-04-01T02:29:51;98323.25;;;3.99;100.00
35435;BME280;21556;55.782;37.528;2023-04-01T02:32:18;98322.66;;;4.10;100.00
35435;BME280;21556;55.782;37.528;2023-04-01T02:34:45;98321.22;;;4.25;100.00
35435;BME280;21556;55.782;37.528;2023-04-01T02:37:11;98327.94;;;4.17;100.00
35435;BME280;21556;55.782;37.528;2023-04-01T02:39:37;98322.75;;;4.17;100.00
35435;BME280;21556;55.782;37.528;2023-04-01T02:42:04;98332.19;;;4.12;100.00
35435;BME280;21556;55.782;37.528;2023-04-01T02:44:30;98328.16;;;4.27;100.00
35435;BME280;21556;55.782;37.528;2023-04-01T02:46:57;98323.06;;;4.32;100.00
35435;BME280;21556;55.782;37.528;2023-04-01T02:49:22;98326.75;;;4.43;100.00
35435;BME280;21556;55.782;37.528;2023-04-01T02:51:49;98326.69;;;4.40;100.00
35435;BME280;21556;55.782;37.528;2023-04-01T02:54:14;98330.09;;;4.39;100.00
35435;BME280;21556;55.782;37.528;2023-04-01T02:56:41;98329.31;;;4.42;100.00
35435;BME280;21556;55.782;37.528;2023-04-01T02:59:08;98332.16;;;4.54;100.00
35435;BME280;21556;55.782;37.528;2023-04-01T03:01:33;98331.22;;;4.52;100.00
35435;BME280;21556;55.782;37.528;2023-04-01T03:03:59;98326.56;;;4.34;100.00
35435;BME280;21556;55.782;37.528;2023-04-01T03:06:25;98322.22;;;4.33;100.00
35435;BME280;21556;55.782;37.528;2023-04-01T03:08:51;98328.34;;;4.37;100.00
35435;BME280;21556;55.782;37.528;2023-04-01T03:11:16;98335.09;;;4.28;100.00
35435;BME280;21556;55.782;37.528;2023-04-01T03:13:42;98328.44;;;4.41;100.00
35435;BME280;21556;55.782;37.528;2023-04-01T03:16:09;98336.56;;;4.58;100.00
35435;BME280;21556;55.782;37.528;2023-04-01T03:18:34;98341.81;;;4.63;100.00
35435;BME280;21556;55.782;37.528;2023-04-01T03:21:22;98341.22;;;4.77;100.00
35435;BME280;21556;55.782;37.528;2023-04-01T03:23:46;98344.88;;;4.42;100.00
35435;BME280;21556;55.782;37.528;2023-04-01T03:26:12;98349.28;;;4.44;100.00
35435;BME280;21556;55.782;37.528;2023-04-01T03:28:38;98345.22;;;4.58;100.00
35435;BME280;21556;55.782;37.528;2023-04-01T03:31:04;98343.44;;;4.56;100.00
35435;BME280;21556;55.782;37.528;2023-04-01T03:33:37;98347.47;;;4.42;100.00
35435;BME280;21556;55.782;37.528;2023-04-01T03:36:03;98348.69;;;4.15;100.00
35435;BME280;21556;55.782;37.528;2023-04-01T03:38:34;98351.56;;;4.29;100.00
35435;BME280;21556;55.782;37.528;2023-04-01T03:41:00;98357.16;;;4.49;100.00
35435;BME280;21556;55.782;37.528;2023-04-01T03:43:26;98357.94;;;4.46;100.00
35435;BME280;21556;55.782;37.528;2023-04-01T03:45:52;98363.88;;;4.39;100.00
35435;BME280;21556;55.782;37.528;2023-04-01T03:48:20;98372.50;;;4.38;100.00
35435;BME280;21556;55.782;37.528;2023-04-01T03:50:47;98369.13;;;4.41;100.00
35435;BME280;21556;55.782;37.528;2023-04-01T03:53:13;98380.16;;;4.30;100.00
35435;BME280;21556;55.782;37.528;2023-04-01T03:55:43;98374.66;;;4.17;100.00
35435;BME280;21556;55.782;37.528;2023-04-01T03:58:09;98374.81;;;4.24;100.00
35435;BME280;21556;55.782;37.528;2023-04-01T04:00:35;98380.38;;;4.41;100.00
35435;BME280;21556;55.782;37.528;2023-04-01T04:03:02;98381.66;;;4.63;100.00
35435;BME280;21556;55.782;37.528;2023-04-01T04:05:31;98385.84;;;4.56;100.00
35435;BME280;21556;55.782;37.528;2023-04-01T04:07:57;98388.88;;;4.34;100.00
35435;BME280;21556;55.782;37.528;2023-04-01T04:10:23;98388.88;;;4.32;100.00
35435;BME280;21556;55.782;37.528;2023-04-01T04:12:50;98394.19;;;4.86;100.00
35435;BME280;21556;55.782;37.528;2023-04-01T04:15:17;98395.81;;;4.33;100.00
35435;BME280;21556;55.782;37.528;2023-04-01T04:17:47;98390.47;;;4.71;100.00
35435;BME280;21556;55.782;37.528;2023-04-01T04:20:13;98399.78;;;4.60;100.00
35435;BME280;21556;55.782;37.528;2023-04-01T04:22:39;98394.53;;;5.04;100.00
35435;BME280;21556;55.782;37.528;2023-04-01T04:25:07;98404.59;;;4.40;100.00
35435;BME280;21556;55.782;37.528;2023-04-01T04:27:34;98403.94;;;4.09;100.00
35435;BME280;21556;55.782;37.528;2023-04-01T04:30:08;98403.50;;;4.29;100.00
35435;BME280;21556;55.782;37.528;2023-04-01T04:32:35;98411.25;;;4.70;100.00
35435;BME280;21556;55.782;37.528;2023-04-01T04:35:01;98409.44;;;5.13;100.00
35435;BME280;21556;55.782;37.528;2023-04-01T04:37:28;98409.31;;;4.59;100.00
35435;BME280;21556;55.782;37.528;2023-04-01T04:39:54;98411.47;;;4.38;100.00
35435;BME280;21556;55.782;37.528;2023-04-01T04:42:20;98410.16;;;4.58;100.00
35435;BME280;21556;55.782;37.528;2023-04-01T04:44:46;98405.59;;;4.92;100.00
35435;BME280;21556;55.782;37.528;2023-04-01T04:47:12;98413.97;;;4.76;100.00
35435;BME280;21556;55.782;37.528;2023-04-01T04:49:38;98414.50;;;4.59;100.00
35435;BME280;21556;55.782;37.528;2023-04-01T04:52:07;98417.00;;;5.00;100.00
35435;BME280;21556;55.782;37.528;2023-04-01T04:54:33;98419.97;;;4.73;100.00
35435;BME280;21556;55.782;37.528;2023-04-01T04:57:00;98426.09;;;4.77;100.00
35435;BME280;21556;55.782;37.528;2023-04-01T04:59:30;98431.34;;;4.80;100.00
35435;BME280;21556;55.782;37.528;2023-04-01T05:02:02;98431.13;;;5.15;100.00
35435;BME280;21556;55.782;37.528;2023-04-01T05:04:28;98431.84;;;5.06;100.00
35435;BME280;21556;55.782;37.528;2023-04-01T05:06:54;98436.84;;;4.95;100.00
35435;BME280;21556;55.782;37.528;2023-04-01T05:09:22;98442.63;;;4.80;100.00
35435;BME280;21556;55.782;37.528;2023-04-01T05:11:48;98437.50;;;4.83;100.00
35435;BME280;21556;55.782;37.528;2023-04-01T05:14:14;98439.56;;;5.03;100.00
35435;BME280;21556;55.782;37.528;2023-04-01T05:16:43;98440.91;;;4.82;100.00
35435;BME280;21556;55.782;37.528;2023-04-01T05:19:09;98444.38;;;4.39;100.00
35435;BME280;21556;55.782;37.528;2023-04-01T05:21:35;98449.28;;;4.68;100.00
35435;BME280;21556;55.782;37.528;2023-04-01T05:24:02;98452.81;;;4.70;100.00
35435;BME280;21556;55.782;37.528;2023-04-01T05:26:30;98455.84;;;4.93;100.00
35435;BME280;21556;55.782;37.528;2023-04-01T05:28:57;98452.50;;;5.00;100.00
35435;BME280;21556;55.782;37.528;2023-04-01T05:31:23;98449.78;;;4.94;100.00
35435;BME280;21556;55.782;37.528;2023-04-01T05:33:50;98450.69;;;4.96;100.00
35435;BME280;21556;55.782;37.528;2023-04-01T05:36:16;98452.44;;;4.97;100.00
35435;BME280;21556;55.782;37.528;2023-04-01T05:38:42;98454.94;;;4.91;100.00
35435;BME280;21556;55.782;37.528;2023-04-01T05:41:11;98446.41;;;5.48;100.00
35435;BME280;21556;55.782;37.528;2023-04-01T05:43:41;98449.31;;;5.13;100.00
35435;BME280;21556;55.782;37.528;2023-04-01T05:46:25;98452.09;;;5.24;100.00
35435;BME280;21556;55.782;37.528;2023-04-01T05:49:16;98451.84;;;5.62;100.00
35435;BME280;21556;55.782;37.528;2023-04-01T05:51:42;98452.41;;;5.42;100.00
35435;BME280;21556;55.782;37.528;2023-04-01T05:54:10;98454.44;;;5.09;100.00
35435;BME280;21556;55.782;37.528;2023-04-01T05:56:37;98454.75;;;5.27;100.00
35435;BME280;21556;55.782;37.528;2023-04-01T05:59:02;98455.59;;;5.79;100.00
35435;BME280;21556;55.782;37.528;2023-04-01T06:01:28;98458.50;;;5.44;100.00
35435;BME280;21556;55.782;37.528;2023-04-01T06:03:54;98468.44;;;5.17;100.00
35435;BME280;21556;55.782;37.528;2023-04-01T06:06:22;98469.13;;;5.08;100.00
35435;BME280;21556;55.782;37.528;2023-04-01T06:08:49;98465.03;;;5.19;100.00
35435;BME280;21556;55.782;37.528;2023-04-01T06:14:07;98466.16;;;5.35;100.00
35435;BME280;21556;55.782;37.528;2023-04-01T06:22:20;98473.47;;;5.56;100.00
35435;BME280;21556;55.782;37.528;2023-04-01T06:27:48;98466.19;;;5.90;100.00
35435;BME280;21556;55.782;37.528;2023-04-01T06:30:58;98468.72;;;5.85;100.00
35435;BME280;21556;55.782;37.528;2023-04-01T06:36:40;98475.56;;;5.80;100.00
35435;BME280;21556;55.782;37.528;2023-04-01T06:39:17;98481.03;;;5.95;100.00
35435;BME280;21556;55.782;37.528;2023-04-01T06:53:47;98485.59;;;6.07;100.00
35435;BME280;21556;55.782;37.528;2023-04-01T06:56:42;98490.81;;;6.09;100.00
35435;BME280;21556;55.782;37.528;2023-04-01T06:59:19;98493.28;;;5.99;100.00
35435;BME280;21556;55.782;37.528;2023-04-01T07:01:54;98506.38;;;6.04;100.00
35435;BME280;21556;55.782;37.528;2023-04-01T07:04:32;98501.28;;;6.12;100.00
35435;BME280;21556;55.782;37.528;2023-04-01T07:09:57;98506.84;;;6.36;100.00
35435;BME280;21556;55.782;37.528;2023-04-01T07:15:26;98488.28;;;6.79;100.00
35435;BME280;21556;55.782;37.528;2023-04-01T07:18:02;98494.13;;;7.34;100.00
35435;BME280;21556;55.782;37.528;2023-04-01T07:20:32;98499.31;;;7.32;100.00
35435;BME280;21556;55.782;37.528;2023-04-01T07:23:03;98491.97;;;7.83;100.00
35435;BME280;21556;55.782;37.528;2023-04-01T07:25:55;98494.69;;;7.98;100.00
35435;BME280;21556;55.782;37.528;2023-04-01T07:28:50;98500.44;;;7.56;100.00
35435;BME280;21556;55.782;37.528;2023-04-01T07:58:29;98522.69;;;7.20;100.00
35435;BME280;21556;55.782;37.528;2023-04-01T08:01:21;98521.25;;;7.50;100.00
35435;BME280;21556;55.782;37.528;2023-04-01T08:06:57;98536.69;;;7.30;100.00
35435;BME280;21556;55.782;37.528;2023-04-01T08:18:06;98531.84;;;7.68;100.00
35435;BME280;21556;55.782;37.528;2023-04-01T08:20:47;98531.75;;;7.57;100.00
35435;BME280;21556;55.782;37.528;2023-04-01T08:23:19;98525.84;;;7.74;100.00
35435;BME280;21556;55.782;37.528;2023-04-01T08:26:34;98523.84;;;8.55;100.00
35435;BME280;21556;55.782;37.528;2023-04-01T08:28:49;98520.59;;;8.99;100.00
35435;BME280;21556;55.782;37.528;2023-04-01T08:31:22;98518.09;;;9.35;100.00
35435;BME280;21556;55.782;37.528;2023-04-01T08:33:53;98525.06;;;9.32;100.00
35435;BME280;21556;55.782;37.528;2023-04-01T08:39:15;98520.19;;;11.85;100.00
35435;BME280;21556;55.782;37.528;2023-04-01T08:50:20;98528.06;;;11.80;100.00
35435;BME280;21556;55.782;37.528;2023-04-01T09:01:11;98533.75;;;13.18;100.00
35435;BME280;21556;55.782;37.528;2023-04-01T09:14:25;98537.94;;;13.37;100.00
35435;BME280;21556;55.782;37.528;2023-04-01T09:22:37;98542.06;;;13.58;100.00
35435;BME280;21556;55.782;37.528;2023-04-01T09:27:44;98536.13;;;13.39;100.00
35435;BME280;21556;55.782;37.528;2023-04-01T09:30:32;98541.00;;;13.70;100.00
35435;BME280;21556;55.782;37.528;2023-04-01T09:40:57;98548.81;;;13.76;100.00
35435;BME280;21556;55.782;37.528;2023-04-01T09:59:15;98560.69;;;14.60;100.00
35435;BME280;21556;55.782;37.528;2023-04-01T10:16:03;98569.69;;;14.97;87.79
35435;BME280;21556;55.782;37.528;2023-04-01T10:32:24;98596.81;;;13.32;100.00
35435;BME280;21556;55.782;37.528;2023-04-01T10:35:02;98586.63;;;14.85;97.51
35435;BME280;21556;55.782;37.528;2023-04-01T10:46:44;98597.22;;;15.30;92.80
35435;BME280;21556;55.782;37.528;2023-04-01T10:54:26;98590.47;;;15.13;99.18
35435;BME280;21556;55.782;37.528;2023-04-01T11:11:34;98603.44;;;12.88;100.00
35435;BME280;21556;55.782;37.528;2023-04-01T11:22:03;98606.13;;;12.82;100.00
35435;BME280;21556;55.782;37.528;2023-04-01T11:30:14;98597.94;;;13.09;100.00
35435;BME280;21556;55.782;37.528;2023-04-01T11:38:00;98605.41;;;12.66;100.00
35435;BME280;21556;55.782;37.528;2023-04-01T11:46:52;98606.81;;;13.00;100.00
35435;BME280;21556;55.782;37.528;2023-04-01T11:57:06;98615.66;;;12.96;100.00
35435;BME280;21556;55.782;37.528;2023-04-01T12:02:20;98613.97;;;12.88;100.00
35435;BME280;21556;55.782;37.528;2023-04-01T12:09:49;98613.00;;;12.96;100.00
35435;BME280;21556;55.782;37.528;2023-04-01T12:19:41;98619.47;;;12.62;100.00
35435;BME280;21556;55.782;37.528;2023-04-01T12:24:59;98629.41;;;12.27;100.00
35435;BME280;21556;55.782;37.528;2023-04-01T12:32:37;98628.81;;;12.95;100.00
35435;BME280;21556;55.782;37.528;2023-04-01T12:40:37;98634.56;;;12.43;100.00
35435;BME280;21556;55.782;37.528;2023-04-01T13:01:50;98653.91;;;12.29;100.00
35435;BME280;21556;55.782;37.528;2023-04-01T13:07:00;98664.28;;;12.54;99.32
35435;BME280;21556;55.782;37.528;2023-04-01T13:12:19;98657.31;;;12.44;100.00
35435;BME280;21556;55.782;37.528;2023-04-01T13:20:05;98675.97;;;12.09;100.00
35435;BME280;21556;55.782;37.528;2023-04-01T13:25:04;98662.75;;;12.19;100.00
35435;BME280;21556;55.782;37.528;2023-04-01T13:27:45;98659.28;;;12.17;96.78
35435;BME280;21556;55.782;37.528;2023-04-01T13:35:26;98680.59;;;11.48;93.05
35435;BME280;21556;55.782;37.528;2023-04-01T13:40:39;98684.84;;;11.81;97.63
35435;BME280;21556;55.782;37.528;2023-04-01T13:43:11;98692.69;;;11.94;98.38
35435;BME280;21556;55.782;37.528;2023-04-01T13:53:43;98699.78;;;11.67;100.00
35435;BME280;21556;55.782;37.528;2023-04-01T13:56:29;98701.66;;;11.25;100.00
35435;BME280;21556;55.782;37.528;2023-04-01T14:07:18;98706.00;;;11.43;100.00
35435;BME280;21556;55.782;37.528;2023-04-01T14:10:07;98711.28;;;11.37;100.00
35435;BME280;21556;55.782;37.528;2023-04-01T14:13:27;98716.50;;;11.43;100.00
35435;BME280;21556;55.782;37.528;2023-04-01T14:18:06;98724.38;;;11.42;100.00
35435;BME280;21556;55.782;37.528;2023-04-01T14:34:01;98726.16;;;11.30;100.00
35435;BME280;21556;55.782;37.528;2023-04-01T14:49:46;98744.59;;;10.83;100.00
35435;BME280;21556;55.782;37.528;2023-04-01T14:52:08;98746.31;;;10.85;100.00
35435;BME280;21556;55.782;37.528;2023-04-01T14:54:36;98750.72;;;10.79;100.00
35435;BME280;21556;55.782;37.528;2023-04-01T14:57:09;98745.44;;;10.77;100.00
35435;BME280;21556;55.782;37.528;2023-04-01T14:59:39;98751.56;;;10.95;100.00
35435;BME280;21556;55.782;37.528;2023-04-01T15:04:56;98766.44;;;10.80;100.00
35435;BME280;21556;55.782;37.528;2023-04-01T15:07:34;98772.56;;;10.92;100.00
35435;BME280;21556;55.782;37.528;2023-04-01T15:38:48;98795.06;;;10.02;100.00
35435;BME280;21556;55.782;37.528;2023-04-01T15:43:49;98803.97;;;10.44;100.00
35435;BME280;21556;55.782;37.528;2023-04-01T15:46:25;98807.50;;;10.62;100.00
35435;BME280;21556;55.782;37.528;2023-04-01T16:04:51;98828.25;;;10.05;100.00
35435;BME280;21556;55.782;37.528;2023-04-01T16:07:29;98832.84;;;10.53;100.00
35435;BME280;21556;55.782;37.528;2023-04-01T16:13:33;98845.91;;;10.40;100.00
35435;BME280;21556;55.782;37.528;2023-04-01T16:15:44;98842.44;;;10.44;100.00
35435;BME280;21556;55.782;37.528;2023-04-01T16:18:42;98857.16;;;10.19;100.00
35435;BME280;21556;55.782;37.528;2023-04-01T16:21:14;98854.38;;;9.91;100.00
35435;BME280;21556;55.782;37.528;2023-04-01T16:23:59;98863.06;;;9.81;100.00
35435;BME280;21556;55.782;37.528;2023-04-01T16:26:43;98870.78;;;9.61;100.00
35435;BME280;21556;55.782;37.528;2023-04-01T16:31:52;98860.44;;;9.78;100.00
35435;BME280;21556;55.782;37.528;2023-04-01T16:34:41;98873.50;;;9.75;100.00
35435;BME280;21556;55.782;37.528;2023-04-01T16:37:20;98870.88;;;9.73;100.00
35435;BME280;21556;55.782;37.528;2023-04-01T16:39:53;98870.16;;;9.99;100.00
35435;BME280;21556;55.782;37.528;2023-04-01T16:47:40;98888.31;;;9.73;100.00
35435;BME280;21556;55.782;37.528;2023-04-01T16:50:24;98878.75;;;9.75;100.00
35435;BME280;21556;55.782;37.528;2023-04-01T16:58:42;98889.25;;;9.84;100.00
35435;BME280;21556;55.782;37.528;2023-04-01T17:01:16;98880.66;;;9.99;100.00
35435;BME280;21556;55.782;37.528;2023-04-01T17:03:46;98886.53;;;9.69;100.00
35435;BME280;21556;55.782;37.528;2023-04-01T17:06:36;98884.97;;;9.94;100.00
35435;BME280;21556;55.782;37.528;2023-04-01T17:14:45;98899.00;;;9.99;100.00
35435;BME280;21556;55.782;37.528;2023-04-01T17:22:26;98901.03;;;9.25;100.00
35435;BME280;21556;55.782;37.528;2023-04-01T17:27:42;98894.34;;;9.61;100.00
35435;BME280;21556;55.782;37.528;2023-04-01T17:35:58;98907.28;;;9.43;100.00
35435;BME280;21556;55.782;37.528;2023-04-01T17:38:23;98902.84;;;9.31;100.00
35435;BME280;21556;55.782;37.528;2023-04-01T17:49:15;98914.44;;;9.60;100.00
35435;BME280;21556;55.782;37.528;2023-04-01T18:00:03;98922.09;;;9.37;100.00
35435;BME280;21556;55.782;37.528;2023-04-01T18:06:20;98932.53;;;9.36;100.00
35435;BME280;21556;55.782;37.528;2023-04-01T18:08:59;98927.22;;;9.28;100.00
35435;BME280;21556;55.782;37.528;2023-04-01T18:11:48;98929.91;;;9.34;100.00
35435;BME280;21556;55.782;37.528;2023-04-01T18:30:20;98950.91;;;9.37;100.00
35435;BME280;21556;55.782;37.528;2023-04-01T18:33:05;98950.03;;;9.37;100.00
35435;BME280;21556;55.782;37.528;2023-04-01T18:35:52;98955.25;;;9.40;100.00
35435;BME280;21556;55.782;37.528;2023-04-01T18:38:24;98958.69;;;9.31;100.00
35435;BME280;21556;55.782;37.528;2023-04-01T18:49:05;98968.84;;;9.01;100.00
35435;BME280;21556;55.782;37.528;2023-04-01T18:51:44;98976.97;;;9.27;100.00
35435;BME280;21556;55.782;37.528;2023-04-01T18:54:20;98974.41;;;9.34;100.00
35435;BME280;21556;55.782;37.528;2023-04-01T18:57:15;98974.38;;;9.30;100.00
35435;BME280;21556;55.782;37.528;2023-04-01T19:02:24;98975.19;;;9.26;100.00
35435;BME280;21556;55.782;37.528;2023-04-01T19:05:01;98973.63;;;9.42;100.00
35435;BME280;21556;55.782;37.528;2023-04-01T19:10:00;98971.66;;;9.21;100.00
35435;BME280;21556;55.782;37.528;2023-04-01T19:12:44;98970.81;;;9.25;100.00
35435;BME280;21556;55.782;37.528;2023-04-01T19:24:38;98981.38;;;9.32;100.00
35435;BME280;21556;55.782;37.528;2023-04-01T19:38:04;98994.22;;;9.09;100.00
35435;BME280;21556;55.782;37.528;2023-04-01T19:40:46;98994.31;;;9.19;100.00
35435;BME280;21556;55.782;37.528;2023-04-01T19:43:20;98997.03;;;9.29;100.00
35435;BME280;21556;55.782;37.528;2023-04-01T19:45:51;99003.06;;;9.21;100.00
35435;BME280;21556;55.782;37.528;2023-04-01T19:56:18;99004.00;;;9.29;100.00
35435;BME280;21556;55.782;37.528;2023-04-01T20:01:12;99013.53;;;9.19;100.00
35435;BME280;21556;55.782;37.528;2023-04-01T20:03:55;99012.44;;;9.02;100.00
35435;BME280;21556;55.782;37.528;2023-04-01T20:09:26;99003.06;;;9.21;100.00
35435;BME280;21556;55.782;37.528;2023-04-01T20:12:06;99007.34;;;9.12;100.00
35435;BME280;21556;55.782;37.528;2023-04-01T20:17:19;99012.75;;;9.29;100.00
35435;BME280;21556;55.782;37.528;2023-04-01T20:22:24;99017.66;;;9.00;100.00
35435;BME280;21556;55.782;37.528;2023-04-01T20:24:56;99019.50;;;9.09;100.00
35435;BME280;21556;55.782;37.528;2023-04-01T20:27:30;99015.31;;;9.23;100.00
35435;BME280;21556;55.782;37.528;2023-04-01T20:30:12;99007.34;;;9.14;100.00
35435;BME280;21556;55.782;37.528;2023-04-01T20:38:19;99011.66;;;9.09;100.00
35435;BME280;21556;55.782;37.528;2023-04-01T20:40:51;99014.31;;;9.12;100.00
35435;BME280;21556;55.782;37.528;2023-04-01T20:46:23;99011.94;;;9.36;100.00
35435;BME280;21556;55.782;37.528;2023-04-01T20:51:30;99015.41;;;9.32;100.00
35435;BME280;21556;55.782;37.528;2023-04-01T20:54:11;99008.94;;;9.00;100.00
35435;BME280;21556;55.782;37.528;2023-04-01T21:23:31;99030.47;;;9.53;100.00
35435;BME280;21556;55.782;37.528;2023-04-01T21:26:08;99029.59;;;9.54;100.00
35435;BME280;21556;55.782;37.528;2023-04-01T21:39:01;99041.03;;;9.65;100.00
35435;BME280;21556;55.782;37.528;2023-04-01T21:52:34;99049.38;;;9.26;100.00
35435;BME280;21556;55.782;37.528;2023-04-01T22:00:15;99052.25;;;9.48;100.00
35435;BME280;21556;55.782;37.528;2023-04-01T22:08:20;99059.22;;;9.50;100.00
35435;BME280;21556;55.782;37.528;2023-04-01T22:10:53;99059.97;;;9.38;100.00
35435;BME280;21556;55.782;37.528;2023-04-01T22:13:30;99054.75;;;9.40;100.00
35435;BME280;21556;55.782;37.528;2023-04-01T22:16:16;99062.72;;;9.51;100.00
35435;BME280;21556;55.782;37.528;2023-04-01T22:21:53;99054.13;;;9.64;100.00
35435;BME280;21556;55.782;37.528;2023-04-01T22:29:49;99052.41;;;9.66;100.00
35435;BME280;21556;55.782;37.528;2023-04-01T22:32:11;99055.56;;;9.34;100.00
35435;BME280;21556;55.782;37.528;2023-04-01T22:34:45;99051.41;;;9.52;100.00
35435;BME280;21556;55.782;37.528;2023-04-01T22:43:41;99054.41;;;9.11;100.00
35435;BME280;21556;55.782;37.528;2023-04-01T22:46:12;99063.38;;;9.31;100.00
35435;BME280;21556;55.782;37.528;2023-04-01T22:56:15;99063.38;;;9.30;100.00
35435;BME280;21556;55.782;37.528;2023-04-01T22:58:56;99070.19;;;9.17;100.00
35435;BME280;21556;55.782;37.528;2023-04-01T23:01:24;99068.75;;;9.40;100.00
35435;BME280;21556;55.782;37.528;2023-04-01T23:03:52;99073.94;;;9.39;100.00
35435;BME280;21556;55.782;37.528;2023-04-01T23:06:23;99061.13;;;9.63;100.00
35435;BME280;21556;55.782;37.528;2023-04-01T23:09:02;99071.13;;;9.21;100.00
35435;BME280;21556;55.782;37.528;2023-04-01T23:11:35;99065.19;;;9.35;100.00
35435;BME280;21556;55.782;37.528;2023-04-01T23:21:59;99070.94;;;9.05;100.00
35435;BME280;21556;55.782;37.528;2023-04-01T23:24:36;99076.50;;;9.34;100.00
35435;BME280;21556;55.782;37.528;2023-04-01T23:29:29;99067.69;;;9.26;100.00
35435;BME280;21556;55.782;37.528;2023-04-01T23:32:02;99069.53;;;9.33;100.00
35435;BME280;21556;55.782;37.528;2023-04-01T23:34:32;99063.25;;;9.22;100.00